Time;durP1;ratioP1;P1;durP2;ratioP2;P2;SDS_P1;SDS_P2;PMS_P1;PMS_P2;Temp;Humidity;BMP_temperature;BMP_pressure;BME280_temperature;BME280_humidity;BME280_pressure;Samples;Min_cycle;Max_cycle;Signal;HPM_P1;HPM_P2
2022/04/08 00:01:53;;;;;;;4.80;1.75;;;;;;;9.15;67.37;97951.06;5051404;28;20190;-79
2022/04/08 00:04:21;;;;;;;5.00;1.70;;;;;;;9.11;67.41;97943.34;5051849;28;20199;-79
2022/04/08 00:06:48;;;;;;;3.95;1.70;;;;;;;9.08;67.10;97944.47;5051524;28;20661;-78
2022/04/08 00:09:14;;;;;;;3.28;1.60;;;;;;;8.98;68.01;97947.00;5051801;28;20206;-78
2022/04/08 00:11:41;;;;;;;7.10;2.20;;;;;;;8.94;68.70;97950.06;5051844;28;20194;-79
2022/04/08 00:14:08;;;;;;;5.53;1.80;;;;;;;8.89;69.39;97946.88;5051625;28;20202;-79
2022/04/08 00:16:34;;;;;;;5.68;1.63;;;;;;;8.96;69.86;97958.84;5051515;28;20287;-78
2022/04/08 00:19:01;;;;;;;5.28;2.05;;;;;;;8.92;69.92;97952.84;5050650;28;20226;-78
2022/04/08 00:21:29;;;;;;;5.57;1.65;;;;;;;8.87;71.13;97952.38;5043997;28;20203;-78
2022/04/08 00:23:55;;;;;;;6.95;2.28;;;;;;;8.90;71.56;97946.75;5050949;28;20275;-78
2022/04/08 00:26:22;;;;;;;7.75;1.80;;;;;;;8.86;71.35;97950.63;5043146;28;20285;-79
2022/04/08 00:28:49;;;;;;;8.25;2.33;;;;;;;8.84;71.42;97939.19;5051615;28;20500;-79
2022/04/08 00:31:15;;;;;;;7.18;1.75;;;;;;;8.81;71.87;97950.13;5050828;28;21084;-78
2022/04/08 00:33:42;;;;;;;5.75;2.00;;;;;;;8.77;72.26;97948.66;5051503;28;20207;-78
2022/04/08 00:36:09;;;;;;;3.50;1.90;;;;;;;8.74;73.21;97965.00;5050602;28;20305;-79
2022/04/08 00:38:37;;;;;;;7.57;2.30;;;;;;;8.68;73.20;97954.75;5051790;28;20195;-79
2022/04/08 00:41:03;;;;;;;6.68;1.60;;;;;;;8.65;73.40;97960.34;5051251;28;20873;-78
2022/04/08 00:43:35;;;;;;;7.65;1.90;;;;;;;8.61;74.57;97969.59;5051515;28;20306;-78
2022/04/08 00:46:02;;;;;;;4.07;1.42;;;;;;;8.63;75.09;97968.50;5050949;28;20217;-78
2022/04/08 00:48:30;;;;;;;7.38;2.55;;;;;;;8.58;75.34;97972.53;5049013;28;20225;-78
2022/04/08 00:50:57;;;;;;;8.40;1.88;;;;;;;8.64;75.21;97974.72;5047974;28;20190;-78
2022/04/08 00:53:25;;;;;;;7.07;2.25;;;;;;;8.55;76.02;97977.16;5049832;28;20556;-78
2022/04/08 00:55:53;;;;;;;5.80;1.77;;;;;;;8.43;77.27;97987.94;5049553;28;20242;-78
2022/04/08 00:58:20;;;;;;;7.00;1.95;;;;;;;8.44;77.90;97986.97;5050800;28;20273;-78
2022/04/08 01:00:47;;;;;;;4.47;1.70;;;;;;;8.48;77.75;97985.75;5050622;28;20567;-78
2022/04/08 01:03:13;;;;;;;5.05;1.90;;;;;;;8.46;78.91;97977.00;5054974;28;20218;-78
2022/04/08 01:05:41;;;;;;;7.07;2.20;;;;;;;8.46;79.34;97985.88;5060550;28;20282;-78
2022/04/08 01:08:10;;;;;;;5.57;2.00;;;;;;;8.39;79.82;97986.41;5050737;28;20247;-78
2022/04/08 01:10:38;;;;;;;7.30;2.28;;;;;;;8.43;80.09;97982.56;5050547;28;20182;-78
2022/04/08 01:13:07;;;;;;;7.30;2.53;;;;;;;8.33;81.51;97987.75;5055294;28;20644;-79
2022/04/08 01:15:33;;;;;;;5.75;1.52;;;;;;;8.36;82.17;97987.50;5051751;28;20181;-78
2022/04/08 01:18:00;;;;;;;7.45;2.20;;;;;;;8.25;83.83;97998.16;5050546;28;20286;-78
2022/04/08 01:20:27;;;;;;;5.72;1.92;;;;;;;8.21;84.67;98002.03;5050356;28;20235;-78
2022/04/08 01:22:54;;;;;;;9.52;2.58;;;;;;;8.21;85.73;98004.72;5050559;28;20276;-78
2022/04/08 01:25:22;;;;;;;2.75;1.40;;;;;;;8.15;87.15;98003.38;5050877;28;20202;-78
2022/04/08 01:27:48;;;;;;;7.38;1.92;;;;;;;8.24;88.11;98001.84;5050260;28;20220;-78
2022/04/08 01:30:16;;;;;;;3.83;1.75;;;;;;;8.12;90.23;98001.78;5050398;28;20275;-78
2022/04/08 01:32:43;;;;;;;4.50;2.05;;;;;;;8.16;90.92;98002.38;5050582;28;20698;-78
2022/04/08 01:35:10;;;;;;;3.78;1.60;;;;;;;8.08;92.20;98008.31;5052050;28;20193;-78
2022/04/08 01:37:37;;;;;;;10.63;1.80;;;;;;;8.04;93.10;98001.47;5054390;28;20213;-78
2022/04/08 01:40:04;;;;;;;6.90;1.63;;;;;;;8.03;94.05;97999.78;5054730;28;20661;-79
2022/04/08 01:42:32;;;;;;;6.10;1.95;;;;;;;8.05;93.35;98000.50;5054578;28;20272;-78
2022/04/08 01:44:59;;;;;;;7.95;2.28;;;;;;;7.97;93.51;98002.88;5045927;28;20198;-80
2022/04/08 01:47:25;;;;;;;5.45;1.60;;;;;;;7.95;94.35;98010.19;5054450;28;20209;-78
2022/04/08 01:49:52;;;;;;;2.72;1.75;;;;;;;7.90;95.24;98005.16;5053481;28;20282;-78
2022/04/08 01:52:19;;;;;;;7.90;1.90;;;;;;;7.89;95.08;98013.28;5054069;28;20216;-78
2022/04/08 01:54:45;;;;;;;8.23;1.70;;;;;;;7.91;95.25;98011.38;5054354;28;20690;-78
2022/04/08 01:57:12;;;;;;;6.20;1.63;;;;;;;7.90;95.30;98010.50;5053627;28;20190;-78
2022/04/08 01:59:40;;;;;;;5.75;1.80;;;;;;;7.93;95.69;98028.19;5053609;28;20335;-79
2022/04/08 02:02:07;;;;;;;5.78;1.55;;;;;;;7.86;96.01;98024.25;5053936;28;20661;-79
2022/04/08 02:04:35;;;;;;;8.10;1.70;;;;;;;7.81;96.91;98023.72;5052527;28;20240;-79
2022/04/08 02:07:06;;;;;;;8.48;2.47;;;;;;;7.75;97.20;98013.44;5053693;28;20200;-78
2022/04/08 02:09:33;;;;;;;7.00;2.20;;;;;;;7.81;96.96;98018.38;5053643;28;20281;-78
2022/04/08 02:11:59;;;;;;;2.95;1.77;;;;;;;7.79;97.41;98020.31;5053948;28;20543;-78
2022/04/08 02:14:26;;;;;;;6.50;2.65;;;;;;;7.66;98.36;98020.31;5053948;28;20617;-78
2022/04/08 02:16:54;;;;;;;6.10;1.83;;;;;;;7.67;98.25;98016.69;5052827;28;20228;-78
2022/04/08 02:19:21;;;;;;;6.50;1.65;;;;;;;7.62;98.71;98017.00;5053145;28;20281;-79
2022/04/08 02:21:48;;;;;;;8.45;2.25;;;;;;;7.61;98.08;98020.63;5053157;28;20281;-79
2022/04/08 02:24:15;;;;;;;5.57;2.00;;;;;;;7.63;97.98;98015.19;5053248;28;20220;-79
2022/04/08 02:26:42;;;;;;;11.93;2.42;;;;;;;7.65;97.47;98016.78;5053443;28;20335;-78
2022/04/08 02:29:09;;;;;;;7.68;2.45;;;;;;;7.60;98.58;98024.31;5053178;28;20232;-78
2022/04/08 02:31:36;;;;;;;7.78;2.22;;;;;;;7.55;99.01;98025.56;5053210;28;20587;-78
2022/04/08 02:34:04;;;;;;;9.18;2.22;;;;;;;7.56;98.62;98020.13;5053411;28;20615;-78
2022/04/08 02:36:31;;;;;;;10.75;2.00;;;;;;;7.52;99.30;98019.47;5052823;28;20193;-78
2022/04/08 02:38:58;;;;;;;3.67;1.83;;;;;;;7.58;99.33;98020.03;5053516;28;20288;-77
2022/04/08 02:41:24;;;;;;;7.60;2.10;;;;;;;7.47;99.95;98026.13;5053049;28;20223;-78
2022/04/08 02:43:51;;;;;;;4.53;1.70;;;;;;;7.52;100.00;98034.69;5052705;28;20251;-78
2022/04/08 02:46:17;;;;;;;7.20;2.08;;;;;;;7.48;100.00;98031.38;5052990;28;20557;-78
2022/04/08 02:48:44;;;;;;;7.93;2.55;;;;;;;7.56;99.95;98046.06;5052486;28;20190;-78
2022/04/08 02:51:13;;;;;;;9.15;2.05;;;;;;;7.56;99.61;98036.19;5052897;28;20224;-78
2022/04/08 02:53:39;;;;;;;9.52;2.13;;;;;;;7.46;100.00;98032.44;5049541;28;20243;-79
2022/04/08 02:56:06;;;;;;;10.30;2.58;;;;;;;7.43;100.00;98029.97;5043796;28;20704;-79
2022/04/08 02:58:33;;;;;;;4.22;1.90;;;;;;;7.46;100.00;98021.72;5046671;28;20360;-78
2022/04/08 03:00:59;;;;;;;3.97;2.00;;;;;;;7.47;100.00;98029.66;5046564;28;20293;-78
2022/04/08 03:03:27;;;;;;;7.10;2.00;;;;;;;7.40;100.00;98047.13;5046154;28;20582;-78
2022/04/08 03:05:54;;;;;;;9.68;2.67;;;;;;;7.42;100.00;98047.03;5049970;28;20205;-78
2022/04/08 03:08:22;;;;;;;9.85;2.05;;;;;;;7.45;100.00;98033.41;5046619;28;20609;-77
2022/04/08 03:10:49;;;;;;;5.88;1.92;;;;;;;7.43;100.00;98040.69;5051935;28;20647;-78
2022/04/08 03:13:17;;;;;;;6.05;2.30;;;;;;;7.59;100.00;98043.16;5050733;28;20193;-79
2022/04/08 03:15:43;;;;;;;14.15;2.88;;;;;;;7.46;100.00;98040.47;5048822;28;20231;-79
2022/04/08 03:18:10;;;;;;;4.22;1.60;;;;;;;7.48;100.00;98033.19;5047480;28;20548;-77
2022/04/08 03:20:37;;;;;;;9.45;3.15;;;;;;;7.46;100.00;98027.97;5051543;28;20304;-79
2022/04/08 03:23:04;;;;;;;12.45;2.38;;;;;;;7.43;100.00;98029.97;5044781;28;20563;-79
2022/04/08 03:25:32;;;;;;;8.65;2.70;;;;;;;7.40;100.00;98031.06;5051677;28;20181;-79
2022/04/08 03:27:58;;;;;;;7.72;2.63;;;;;;;7.49;100.00;98025.06;5051914;28;20703;-78
2022/04/08 03:30:27;;;;;;;5.57;1.70;;;;;;;7.43;100.00;98033.50;5049833;28;20197;-78
2022/04/08 03:32:54;;;;;;;3.85;1.70;;;;;;;7.50;100.00;98029.44;5047732;28;20286;-78
2022/04/08 03:35:21;;;;;;;4.63;1.67;;;;;;;7.57;100.00;98024.50;5051069;28;20309;-78
2022/04/08 03:37:48;;;;;;;5.07;1.98;;;;;;;7.59;100.00;98013.69;5050155;28;20186;-78
2022/04/08 03:40:14;;;;;;;12.52;3.60;;;;;;;7.58;100.00;98020.88;5043597;28;20225;-78
2022/04/08 03:42:42;;;;;;;6.20;2.17;;;;;;;7.62;100.00;98019.69;5044158;28;20198;-79
2022/04/08 03:45:10;;;;;;;5.85;2.47;;;;;;;7.64;100.00;98014.22;5048231;28;20225;-78
2022/04/08 03:47:37;;;;;;;4.47;2.00;;;;;;;7.61;100.00;98009.94;5050913;28;20200;-78
2022/04/08 03:50:04;;;;;;;4.40;2.20;;;;;;;7.72;100.00;98019.88;5049893;28;20777;-78
2022/04/08 03:52:32;;;;;;;9.60;2.47;;;;;;;7.62;100.00;98002.75;5048077;28;20191;-78
2022/04/08 03:55:00;;;;;;;8.77;2.92;;;;;;;7.67;100.00;98014.84;5049886;28;20602;-78
2022/04/08 03:57:26;;;;;;;10.68;2.70;;;;;;;7.68;100.00;98013.88;5043042;28;20237;-78
2022/04/08 03:59:55;;;;;;;3.20;1.77;;;;;;;7.77;100.00;98015.03;5049554;28;20282;-78
2022/04/08 04:02:22;;;;;;;6.82;1.92;;;;;;;7.69;100.00;98012.94;5046968;28;20598;-78
2022/04/08 04:04:49;;;;;;;9.45;2.05;;;;;;;7.66;100.00;98013.13;5047808;28;20272;-79
2022/04/08 04:07:17;;;;;;;7.18;2.42;;;;;;;7.66;100.00;98005.09;5045552;28;20712;-79
2022/04/08 04:09:44;;;;;;;10.35;2.90;;;;;;;7.68;100.00;97997.81;5042584;28;20240;-78
2022/04/08 04:12:11;;;;;;;11.25;2.72;;;;;;;7.79;100.00;97994.34;5045003;28;20605;-78
2022/04/08 04:14:38;;;;;;;6.93;2.50;;;;;;;7.62;100.00;97995.59;5048531;28;20193;-78
2022/04/08 04:17:06;;;;;;;11.63;2.95;;;;;;;7.59;100.00;98002.97;5046462;28;20592;-79
2022/04/08 04:19:33;;;;;;;5.68;2.30;;;;;;;7.69;100.00;98015.59;5049362;28;20280;-79
2022/04/08 04:22:00;;;;;;;5.63;2.30;;;;;;;7.67;100.00;98014.84;5050413;28;20209;-78
2022/04/08 04:24:27;;;;;;;7.35;2.83;;;;;;;7.66;100.00;98023.84;5049853;28;20286;-78
2022/04/08 04:26:53;;;;;;;7.45;3.33;;;;;;;7.59;100.00;98021.72;5049408;28;20579;-78
2022/04/08 04:29:20;;;;;;;12.77;3.22;;;;;;;7.60;100.00;98026.09;5047906;28;22094;-78
2022/04/08 04:31:47;;;;;;;6.30;3.35;;;;;;;7.66;100.00;98023.84;5047908;28;20624;-79
2022/04/08 04:34:15;;;;;;;11.95;3.55;;;;;;;7.53;100.00;98023.03;5050550;28;20197;-79
2022/04/08 04:36:42;;;;;;;9.45;4.07;;;;;;;7.67;100.00;98030.06;5050306;28;20612;-79
2022/04/08 04:39:09;;;;;;;9.38;4.97;;;;;;;7.65;100.00;98034.69;5048774;28;20231;-79
2022/04/08 04:41:35;;;;;;;7.05;3.08;;;;;;;7.68;100.00;98034.47;5040792;28;20221;-79
2022/04/08 04:44:02;;;;;;;11.98;3.38;;;;;;;7.70;100.00;98038.72;5041699;28;20198;-79
2022/04/08 04:46:29;;;;;;;6.95;2.75;;;;;;;7.68;100.00;98034.47;5049183;28;20193;-79
2022/04/08 04:48:55;;;;;;;5.97;2.67;;;;;;;7.73;100.00;98037.66;5045597;28;20200;-78
2022/04/08 04:51:23;;;;;;;10.35;2.95;;;;;;;7.71;100.00;98027.06;5049624;28;20182;-79
2022/04/08 04:53:50;;;;;;;5.80;2.30;;;;;;;7.65;100.00;98040.03;5049143;28;20197;-79
2022/04/08 04:56:16;;;;;;;6.97;2.20;;;;;;;7.70;100.00;98038.72;5050036;28;20185;-79
2022/04/08 04:58:43;;;;;;;5.47;2.05;;;;;;;7.66;100.00;98028.34;5047528;28;20611;-79
2022/04/08 05:01:09;;;;;;;6.10;2.15;;;;;;;7.81;100.00;98023.72;5042471;28;20212;-78
2022/04/08 05:03:36;;;;;;;6.57;1.90;;;;;;;7.78;100.00;98029.28;5045482;28;20197;-78
2022/04/08 05:06:03;;;;;;;7.43;3.10;;;;;;;7.70;100.00;98038.72;5041342;28;20190;-79
2022/04/08 05:08:31;;;;;;;6.95;2.10;;;;;;;7.82;100.00;98033.47;5049795;28;20544;-78
2022/04/08 05:10:58;;;;;;;8.82;1.90;;;;;;;7.86;100.00;98029.59;5048998;28;20625;-78
2022/04/08 05:13:24;;;;;;;6.30;2.13;;;;;;;7.97;100.00;98023.47;5045043;28;20197;-79
2022/04/08 05:15:51;;;;;;;6.75;2.78;;;;;;;8.02;100.00;98016.81;5047617;28;20196;-79
2022/04/08 05:18:17;;;;;;;8.77;2.97;;;;;;;7.98;100.00;98015.31;5051620;28;20194;-79
2022/04/08 05:20:44;;;;;;;9.82;2.75;;;;;;;8.11;100.00;98013.44;5054041;28;20223;-78
2022/04/08 05:23:11;;;;;;;5.70;2.78;;;;;;;8.06;100.00;98017.44;5047450;28;20197;-79
2022/04/08 05:25:38;;;;;;;6.97;2.35;;;;;;;8.15;100.00;98012.25;5048552;28;20197;-79
2022/04/08 05:28:06;;;;;;;6.55;2.40;;;;;;;8.12;100.00;98012.50;5051189;28;20201;-78
2022/04/08 05:30:32;;;;;;;3.92;1.92;;;;;;;8.20;100.00;98001.19;5051910;28;20197;-78
2022/04/08 05:32:59;;;;;;;6.35;2.00;;;;;;;8.25;100.00;97992.81;5052514;28;20653;-78
2022/04/08 05:35:25;;;;;;;9.35;2.70;;;;;;;8.28;100.00;97995.28;5053470;28;20507;-79
2022/04/08 05:37:52;;;;;;;3.90;2.40;;;;;;;8.30;100.00;97986.16;5052709;28;20402;-79
2022/04/08 05:40:21;;;;;;;6.85;2.38;;;;;;;8.35;100.00;97978.59;5053713;28;20702;-79
2022/04/08 05:42:50;;;;;;;7.60;1.98;;;;;;;8.24;100.00;97981.25;5053587;28;20309;-78
2022/04/08 05:45:20;;;;;;;10.50;3.42;;;;;;;8.41;100.00;97989.88;5052312;28;20187;-79
2022/04/08 05:47:49;;;;;;;7.03;2.15;;;;;;;8.22;100.00;97991.22;5052297;28;20525;-79
2022/04/08 05:50:17;;;;;;;7.60;2.65;;;;;;;8.32;100.00;97986.00;5049787;28;20199;-78
2022/04/08 05:52:45;;;;;;;9.50;3.05;;;;;;;8.45;99.69;97989.53;5052925;28;20194;-78
2022/04/08 05:55:11;;;;;;;14.43;2.53;;;;;;;8.43;98.45;97983.41;5045547;28;20229;-78
2022/04/08 05:57:40;;;;;;;4.90;3.13;;;;;;;8.63;98.09;97989.13;5051646;28;20190;-79
2022/04/08 06:00:10;;;;;;;8.93;3.35;;;;;;;8.51;97.89;97981.03;5048460;28;20241;-78
2022/04/08 06:02:36;;;;;;;6.22;2.63;;;;;;;8.64;96.98;97982.78;5051391;28;20286;-78
2022/04/08 06:05:04;;;;;;;9.45;2.40;;;;;;;8.55;97.52;97979.84;5052864;28;20193;-78
2022/04/08 06:07:30;;;;;;;13.50;7.75;;;;;;;8.63;96.89;97973.88;5053009;28;20278;-79
2022/04/08 06:10:00;;;;;;;9.38;2.85;;;;;;;8.73;96.49;97972.22;5052734;28;20641;-78
2022/04/08 06:12:26;;;;;;;7.85;2.47;;;;;;;8.77;94.82;97975.50;5052565;28;20191;-78
2022/04/08 06:14:53;;;;;;;7.28;2.25;;;;;;;8.69;95.63;97970.72;5053566;28;20201;-78
2022/04/08 06:17:21;;;;;;;5.20;2.40;;;;;;;8.76;94.23;97960.38;5052908;28;20196;-77
2022/04/08 06:19:49;;;;;;;5.65;1.92;;;;;;;8.68;95.55;97965.47;5053527;28;20209;-78
2022/04/08 06:22:15;;;;;;;7.80;2.97;;;;;;;8.72;94.66;97966.94;5051169;28;20203;-75
2022/04/08 06:24:42;;;;;;;3.85;1.75;;;;;;;8.82;93.00;97961.72;5051758;28;20543;-76
2022/04/08 06:27:08;;;;;;;8.02;2.35;;;;;;;8.87;93.49;97956.88;5052660;28;20555;-75
2022/04/08 06:29:35;;;;;;;5.30;2.30;;;;;;;8.72;94.19;97950.84;5053214;28;20187;-75
2022/04/08 06:32:02;;;;;;;7.40;2.85;;;;;;;8.67;94.51;97955.72;5045232;28;20190;-75
2022/04/08 06:34:30;;;;;;;7.90;1.90;;;;;;;8.84;93.53;97954.41;5048017;28;20199;-75
2022/04/08 06:36:56;;;;;;;5.80;2.70;;;;;;;9.03;92.61;97943.13;5053755;28;20792;-75
2022/04/08 06:39:23;;;;;;;10.70;2.50;;;;;;;9.12;90.97;97934.34;5052829;28;20196;-76
2022/04/08 06:41:49;;;;;;;7.63;2.25;;;;;;;9.16;90.74;97928.63;5054262;28;20205;-76
2022/04/08 06:44:16;;;;;;;7.55;2.45;;;;;;;9.23;88.86;97934.34;5054848;28;20213;-76
2022/04/08 06:46:43;;;;;;;5.63;2.70;;;;;;;9.13;90.36;97919.94;5054832;28;20245;-77
2022/04/08 06:49:12;;;;;;;5.50;2.47;;;;;;;9.29;89.65;97930.31;5054425;28;20536;-74
2022/04/08 06:51:40;;;;;;;7.30;2.90;;;;;;;9.29;90.95;97922.25;5053653;28;20203;-75
2022/04/08 06:54:06;;;;;;;5.88;2.40;;;;;;;9.16;90.45;97919.72;5054437;28;20222;-75
2022/04/08 06:56:33;;;;;;;5.43;2.35;;;;;;;9.33;92.40;97907.63;5053708;28;20265;-75
2022/04/08 06:58:59;;;;;;;7.82;1.90;;;;;;;9.36;91.62;97905.56;5053373;28;20325;-76
2022/04/08 07:01:26;;;;;;;9.23;1.85;;;;;;;9.35;92.12;97901.13;5053303;28;20733;-75
2022/04/08 07:03:53;;;;;;;3.08;1.90;;;;;;;9.10;92.40;97904.06;5053124;28;20199;-75
2022/04/08 07:06:19;;;;;;;5.45;2.17;;;;;;;9.32;96.39;97893.34;5053106;28;20227;-76
2022/04/08 07:08:47;;;;;;;8.90;2.10;;;;;;;9.54;96.08;97896.97;5053089;28;20205;-76
2022/04/08 07:11:14;;;;;;;4.57;2.08;;;;;;;9.32;96.56;97887.13;5053040;28;20194;-76
2022/04/08 07:13:41;;;;;;;5.85;2.40;;;;;;;9.53;95.58;97887.22;5053360;28;20277;-77
2022/04/08 07:16:08;;;;;;;4.47;2.45;;;;;;;9.68;97.55;97879.72;5053894;28;20211;-76
2022/04/08 07:18:34;;;;;;;8.85;2.65;;;;;;;9.84;96.97;97880.19;5053582;28;20275;-76
2022/04/08 07:21:01;;;;;;;9.43;2.60;;;;;;;10.00;96.15;97866.31;5053230;28;20196;-76
2022/04/08 07:23:28;;;;;;;7.30;2.33;;;;;;;9.78;92.36;97864.56;5043937;28;20190;-75
2022/04/08 07:25:56;;;;;;;5.00;2.13;;;;;;;9.79;95.47;97866.25;5033328;28;20215;-75
2022/04/08 07:28:23;;;;;;;5.70;2.63;;;;;;;9.56;100.00;97871.69;5041477;28;20246;-76
2022/04/08 07:30:51;;;;;;;5.70;2.13;;;;;;;9.58;98.69;97874.25;5052853;28;20207;-76
2022/04/08 07:33:17;;;;;;;4.70;2.35;;;;;;;9.32;97.16;97871.84;5050939;28;20274;-76
2022/04/08 07:35:44;;;;;;;5.15;2.33;;;;;;;9.12;98.17;97861.84;5053248;28;20195;-75
2022/04/08 07:38:11;;;;;;;4.95;1.90;;;;;;;9.10;98.31;97866.50;5052321;28;20198;-75
2022/04/08 07:40:38;;;;;;;4.55;1.77;;;;;;;8.86;99.35;97863.91;5053095;28;20199;-76
2022/04/08 07:43:06;;;;;;;5.38;2.67;;;;;;;9.16;100.00;97860.63;5052066;28;20203;-75
2022/04/08 07:45:32;;;;;;;6.70;2.22;;;;;;;9.11;100.00;97857.44;5053296;28;20715;-75
2022/04/08 07:47:59;;;;;;;5.25;2.30;;;;;;;9.46;100.00;97851.09;5051779;28;20297;-76
2022/04/08 07:50:27;;;;;;;3.90;1.60;;;;;;;9.33;100.00;97851.22;5052151;28;20210;-76
2022/04/08 07:52:54;;;;;;;7.88;3.03;;;;;;;9.20;100.00;97848.66;5039856;28;20210;-76
2022/04/08 07:55:23;;;;;;;6.85;2.00;;;;;;;9.02;100.00;97845.59;5032786;28;20192;-76
2022/04/08 07:57:51;;;;;;;5.13;2.00;;;;;;;9.15;100.00;97840.97;5033286;28;20550;-75
2022/04/08 08:00:20;;;;;;;7.70;1.77;;;;;;;9.20;100.00;97840.59;5032569;28;20232;-76
2022/04/08 08:02:47;;;;;;;6.90;2.08;;;;;;;9.21;100.00;97841.47;5040228;28;20216;-75
2022/04/08 08:05:14;;;;;;;5.10;1.85;;;;;;;9.28;100.00;97834.63;5052122;28;20249;-76
2022/04/08 08:07:46;;;;;;;5.40;2.00;;;;;;;9.04;100.00;97826.69;5052389;28;20222;-76
2022/04/08 08:10:15;;;;;;;4.07;2.50;;;;;;;9.39;100.00;97830.09;5052173;28;20282;-76
2022/04/08 08:12:42;;;;;;;7.32;1.85;;;;;;;9.29;100.00;97825.56;5052316;28;20259;-75
2022/04/08 08:15:10;;;;;;;9.18;2.22;;;;;;;9.21;100.00;97825.38;5052806;28;20213;-75
2022/04/08 08:17:39;;;;;;;5.43;1.90;;;;;;;8.98;100.00;97820.00;5051881;28;20196;-75
2022/04/08 08:20:06;;;;;;;7.53;2.20;;;;;;;9.16;100.00;97823.06;5057828;28;20195;-76
2022/04/08 08:22:33;;;;;;;4.57;2.08;;;;;;;9.19;100.00;97823.63;5051725;28;20309;-75
2022/04/08 08:25:00;;;;;;;3.80;1.75;;;;;;;8.91;100.00;97827.69;5052106;28;20662;-76
2022/04/08 08:27:26;;;;;;;4.78;1.80;;;;;;;8.73;100.00;97819.28;5052358;28;20610;-75
2022/04/08 08:29:53;;;;;;;3.83;1.63;;;;;;;8.65;100.00;97821.69;5051800;28;20206;-75
2022/04/08 08:32:21;;;;;;;5.50;1.50;;;;;;;8.68;100.00;97820.59;5051543;28;20632;-75
2022/04/08 08:34:49;;;;;;;4.60;2.10;;;;;;;8.67;100.00;97813.53;5051653;28;20182;-75
2022/04/08 08:37:16;;;;;;;4.55;1.75;;;;;;;8.68;100.00;97809.84;5051499;28;20677;-76
2022/04/08 08:39:42;;;;;;;3.75;2.63;;;;;;;8.84;100.00;97801.44;5051341;28;20190;-76
2022/04/08 08:42:10;;;;;;;7.80;4.45;;;;;;;8.83;100.00;97797.91;5051053;28;20281;-77
2022/04/08 08:44:37;;;;;;;4.65;1.77;;;;;;;8.90;100.00;97795.59;5051124;28;20187;-75
2022/04/08 08:47:07;;;;;;;6.22;2.08;;;;;;;8.69;100.00;97803.53;5050958;28;20225;-75
2022/04/08 08:49:34;;;;;;;3.55;1.70;;;;;;;8.58;100.00;97795.47;5051579;28;20184;-76
2022/04/08 08:52:06;;;;;;;2.60;1.92;;;;;;;8.65;100.00;97794.00;5051273;28;20187;-75
2022/04/08 08:54:34;;;;;;;4.05;2.20;;;;;;;8.71;100.00;97794.38;5053371;28;20969;-80
2022/04/08 08:57:01;;;;;;;6.45;2.10;;;;;;;8.59;100.00;97791.81;5049397;28;20195;-82
2022/04/08 08:59:29;;;;;;;6.30;2.00;;;;;;;8.29;100.00;97785.16;5051663;28;20221;-82
2022/04/08 09:02:02;;;;;;;4.22;1.80;;;;;;;8.47;100.00;97775.69;5050903;28;20227;-84
2022/04/08 09:04:29;;;;;;;2.20;1.70;;;;;;;8.50;100.00;97772.81;5055900;28;20625;-83
2022/04/08 09:06:56;;;;;;;6.80;3.00;;;;;;;8.71;100.00;97767.56;5050360;28;20203;-82
2022/04/08 09:09:31;;;;;;;2.92;2.05;;;;;;;8.75;100.00;97765.47;5050456;28;20195;-84
2022/04/08 09:11:58;;;;;;;5.22;2.20;;;;;;;8.71;100.00;97762.19;5049141;28;20197;-79
2022/04/08 09:14:28;;;;;;;2.75;1.50;;;;;;;8.62;100.00;97760.25;5050741;28;20248;-81
2022/04/08 09:17:01;;;;;;;4.07;1.88;;;;;;;8.86;100.00;97759.25;5051280;28;20181;-79
2022/04/08 09:19:33;;;;;;;4.18;2.10;;;;;;;8.95;100.00;97753.13;5047673;28;20204;-81
2022/04/08 09:22:00;;;;;;;2.33;1.80;;;;;;;8.92;100.00;97756.06;5050383;28;20207;-81
2022/04/08 09:24:26;;;;;;;4.57;2.05;;;;;;;9.00;100.00;97752.75;5050743;28;20212;-83
2022/04/08 09:26:56;;;;;;;2.67;1.33;;;;;;;8.80;100.00;97743.66;5050774;28;20199;-83
2022/04/08 09:29:23;;;;;;;3.38;2.20;;;;;;;8.67;100.00;97741.09;5050688;28;20694;-83
2022/04/08 09:31:50;;;;;;;2.90;2.13;;;;;;;8.76;100.00;97737.66;5050635;28;20190;-81
2022/04/08 09:34:17;;;;;;;3.40;2.38;;;;;;;8.89;100.00;97730.34;5057585;28;20574;-79
2022/04/08 09:36:44;;;;;;;4.32;1.70;;;;;;;8.92;100.00;97726.56;5050384;28;20611;-79
2022/04/08 09:39:12;;;;;;;3.65;1.60;;;;;;;8.90;100.00;97713.25;5049878;28;20192;-79
2022/04/08 09:41:39;;;;;;;2.17;1.50;;;;;;;8.97;100.00;97716.28;5050881;28;20194;-79
2022/04/08 09:44:09;;;;;;;1.88;1.40;;;;;;;8.83;100.00;97698.63;5051131;28;20641;-79
2022/04/08 09:46:36;;;;;;;2.40;1.50;;;;;;;8.47;100.00;97697.94;5049764;28;20893;-79
2022/04/08 09:49:04;;;;;;;2.72;1.63;;;;;;;8.65;100.00;97690.25;5050442;28;20656;-78
2022/04/08 09:51:36;;;;;;;2.97;2.13;;;;;;;8.87;100.00;97685.81;5050120;28;20289;-79
2022/04/08 09:54:05;;;;;;;3.10;1.55;;;;;;;8.68;100.00;97681.09;5031398;28;20184;-79
2022/04/08 09:56:32;;;;;;;3.85;1.45;;;;;;;8.96;100.00;97672.50;5032865;28;20210;-78
2022/04/08 09:59:05;;;;;;;1.92;1.38;;;;;;;8.76;100.00;97667.91;5034916;28;20230;-78
2022/04/08 10:01:34;;;;;;;3.85;1.90;;;;;;;8.99;100.00;97671.38;5034180;28;20191;-78
2022/04/08 10:04:04;;;;;;;2.85;2.47;;;;;;;9.14;100.00;97661.22;5048903;28;20220;-79
2022/04/08 10:06:31;;;;;;;2.17;1.60;;;;;;;9.12;100.00;97658.66;5054204;28;20647;-78
2022/04/08 10:08:59;;;;;;;2.30;1.70;;;;;;;9.11;100.00;97645.34;5055205;28;20183;-78
2022/04/08 10:11:35;;;;;;;2.33;1.48;;;;;;;9.23;100.00;97636.28;5054593;28;20200;-79
2022/04/08 10:14:35;;;;;;;2.95;1.65;;;;;;;9.30;100.00;97633.94;5034950;28;20191;-80
2022/04/08 10:17:04;;;;;;;2.90;2.05;;;;;;;9.19;100.00;97630.31;5031769;28;20213;-78
2022/04/08 10:19:31;;;;;;;3.67;2.85;;;;;;;9.28;100.00;97631.38;5033784;28;20203;-78
2022/04/08 10:21:59;;;;;;;2.40;1.30;;;;;;;9.29;100.00;97627.69;5034129;28;20624;-78
2022/04/08 10:24:27;;;;;;;3.33;2.00;;;;;;;9.15;100.00;97619.97;5033739;28;20279;-79
2022/04/08 10:27:00;;;;;;;2.08;1.60;;;;;;;8.97;100.00;97614.28;5034523;28;20248;-79
2022/04/08 10:29:27;;;;;;;2.22;1.73;;;;;;;8.86;100.00;97615.19;5053637;28;20476;-78
2022/04/08 10:32:02;;;;;;;4.65;4.25;;;;;;;8.76;100.00;97616.94;5054549;28;20289;-79
2022/04/08 10:34:32;;;;;;;2.92;1.60;;;;;;;8.63;100.00;97611.72;5054504;28;20191;-79
2022/04/08 10:36:59;;;;;;;3.47;2.10;;;;;;;8.80;100.00;97601.44;5054142;28;20243;-78
2022/04/08 10:39:26;;;;;;;4.05;3.45;;;;;;;8.70;100.00;97593.28;5054338;28;20197;-78
2022/04/08 10:41:54;;;;;;;3.90;2.53;;;;;;;8.84;100.00;97578.72;5054438;28;20193;-78
2022/04/08 10:44:32;;;;;;;2.88;1.50;;;;;;;8.43;100.00;97569.56;5053025;28;20195;-79
2022/04/08 10:47:01;;;;;;;5.15;2.28;;;;;;;8.28;100.00;97566.28;5053496;28;20285;-79
2022/04/08 10:49:28;;;;;;;5.72;2.33;;;;;;;8.22;100.00;97566.78;5053741;28;20241;-81
2022/04/08 10:51:56;;;;;;;10.18;4.45;;;;;;;8.44;100.00;97557.88;5053900;28;20202;-78
2022/04/08 10:54:34;;;;;;;1.98;1.40;;;;;;;8.52;100.00;97550.03;5054919;28;20612;-78
2022/04/08 10:57:01;;;;;;;2.08;1.80;;;;;;;8.16;100.00;97554.72;5053563;28;20636;-78
2022/04/08 10:59:28;;;;;;;1.40;1.20;;;;;;;8.18;100.00;97554.59;5052716;28;20687;-78
2022/04/08 11:02:00;;;;;;;2.35;1.00;;;;;;;8.03;100.00;97554.88;5053530;28;20541;-78
2022/04/08 11:04:28;;;;;;;2.70;2.15;;;;;;;7.94;100.00;97548.41;5053472;28;20187;-79
2022/04/08 11:06:57;;;;;;;2.70;1.50;;;;;;;7.72;100.00;97546.59;5053897;28;20205;-79
2022/04/08 11:09:24;;;;;;;2.78;1.90;;;;;;;7.62;100.00;97539.38;5054077;28;20186;-78
2022/04/08 11:11:53;;;;;;;2.03;1.75;;;;;;;7.63;100.00;97539.28;5053529;28;20212;-78
2022/04/08 11:14:20;;;;;;;3.33;1.90;;;;;;;7.29;100.00;97535.72;5052854;28;20547;-78
2022/04/08 11:16:49;;;;;;;2.50;1.40;;;;;;;7.12;100.00;97533.47;5053519;28;20272;-78
2022/04/08 11:19:15;;;;;;;1.10;0.90;;;;;;;7.21;100.00;97517.59;5053604;28;20548;-78
2022/04/08 11:21:43;;;;;;;2.40;1.75;;;;;;;7.08;100.00;97517.66;5052885;28;20208;-79
2022/04/08 11:24:13;;;;;;;3.20;2.05;;;;;;;7.31;100.00;97513.22;5052993;28;20690;-79
2022/04/08 11:26:45;;;;;;;2.22;1.50;;;;;;;7.58;100.00;97525.41;5053164;28;20697;-78
2022/04/08 11:29:14;;;;;;;3.67;2.20;;;;;;;7.66;100.00;97503.38;5052486;28;20272;-78
2022/04/08 11:31:41;;;;;;;2.00;1.30;;;;;;;7.35;100.00;97492.41;5053537;28;20185;-78
2022/04/08 11:34:08;;;;;;;4.28;2.50;;;;;;;7.07;100.00;97491.88;5053412;28;20982;-77
2022/04/08 11:36:36;;;;;;;2.03;1.35;;;;;;;7.62;100.00;97480.47;5053075;28;20292;-78
2022/04/08 11:39:05;;;;;;;2.88;2.10;;;;;;;7.88;100.00;97489.94;5052991;28;20388;-79